sensor_id;sensor_type;location;lat;lon;timestamp;P1;durP1;ratioP1;P2;durP2;ratioP2
69419;SDS011;56612;52.030;113.524;2022-11-15T00:01:43;28.65;;;8.68;;
69419;SDS011;56612;52.030;113.524;2022-11-15T00:05:05;31.13;;;10.00;;
69419;SDS011;56612;52.030;113.524;2022-11-15T00:08:29;29.02;;;8.77;;
69419;SDS011;56612;52.030;113.524;2022-11-15T00:11:52;29.57;;;9.60;;
69419;SDS011;56612;52.030;113.524;2022-11-15T00:15:15;29.92;;;8.60;;
69419;SDS011;56612;52.030;113.524;2022-11-15T00:18:38;15.23;;;4.75;;
69419;SDS011;56612;52.030;113.524;2022-11-15T00:22:00;9.65;;;3.53;;
69419;SDS011;56612;52.030;113.524;2022-11-15T00:25:21;11.60;;;3.80;;
69419;SDS011;56612;52.030;113.524;2022-11-15T00:28:44;19.97;;;5.90;;
69419;SDS011;56612;52.030;113.524;2022-11-15T00:32:05;21.67;;;7.55;;
69419;SDS011;56612;52.030;113.524;2022-11-15T00:35:26;21.67;;;7.10;;
69419;SDS011;56612;52.030;113.524;2022-11-15T00:38:48;28.83;;;9.18;;
69419;SDS011;56612;52.030;113.524;2022-11-15T00:42:09;35.80;;;11.15;;
69419;SDS011;56612;52.030;113.524;2022-11-15T00:45:31;15.43;;;5.90;;
69419;SDS011;56612;52.030;113.524;2022-11-15T00:48:57;17.90;;;5.93;;
69419;SDS011;56612;52.030;113.524;2022-11-15T00:52:19;15.80;;;6.38;;
69419;SDS011;56612;52.030;113.524;2022-11-15T00:55:41;18.35;;;5.72;;
69419;SDS011;56612;52.030;113.524;2022-11-15T00:59:03;13.25;;;6.10;;
69419;SDS011;56612;52.030;113.524;2022-11-15T01:02:26;14.17;;;5.17;;
69419;SDS011;56612;52.030;113.524;2022-11-15T01:05:49;16.50;;;5.85;;
69419;SDS011;56612;52.030;113.524;2022-11-15T01:09:11;20.88;;;6.57;;
69419;SDS011;56612;52.030;113.524;2022-11-15T01:12:32;19.40;;;6.28;;
69419;SDS011;56612;52.030;113.524;2022-11-15T01:15:54;15.20;;;5.60;;
69419;SDS011;56612;52.030;113.524;2022-11-15T01:19:16;17.17;;;6.47;;
69419;SDS011;56612;52.030;113.524;2022-11-15T01:22:37;19.52;;;7.32;;
69419;SDS011;56612;52.030;113.524;2022-11-15T01:26:02;20.58;;;7.90;;
69419;SDS011;56612;52.030;113.524;2022-11-15T01:29:24;22.75;;;8.82;;
69419;SDS011;56612;52.030;113.524;2022-11-15T01:32:46;21.45;;;9.00;;
69419;SDS011;56612;52.030;113.524;2022-11-15T01:36:16;19.80;;;7.50;;
69419;SDS011;56612;52.030;113.524;2022-11-15T01:39:40;21.42;;;7.88;;
69419;SDS011;56612;52.030;113.524;2022-11-15T01:43:18;18.60;;;7.28;;
69419;SDS011;56612;52.030;113.524;2022-11-15T01:46:47;19.25;;;8.48;;
69419;SDS011;56612;52.030;113.524;2022-11-15T01:50:14;15.48;;;6.38;;
69419;SDS011;56612;52.030;113.524;2022-11-15T01:53:46;18.57;;;9.17;;
69419;SDS011;56612;52.030;113.524;2022-11-15T01:57:10;19.92;;;7.65;;
69419;SDS011;56612;52.030;113.524;2022-11-15T02:00:34;27.40;;;8.70;;
69419;SDS011;56612;52.030;113.524;2022-11-15T02:03:59;24.30;;;8.18;;
69419;SDS011;56612;52.030;113.524;2022-11-15T02:07:24;22.10;;;8.68;;
69419;SDS011;56612;52.030;113.524;2022-11-15T02:10:47;18.00;;;6.80;;
69419;SDS011;56612;52.030;113.524;2022-11-15T02:14:10;12.52;;;5.47;;
69419;SDS011;56612;52.030;113.524;2022-11-15T02:32:47;10.43;;;4.22;;
69419;SDS011;56612;52.030;113.524;2022-11-15T02:36:14;7.38;;;2.00;;
69419;SDS011;56612;52.030;113.524;2022-11-15T02:43:16;10.07;;;1.10;;
69419;SDS011;56612;52.030;113.524;2022-11-15T02:47:04;9.60;;;1.87;;
69419;SDS011;56612;52.030;113.524;2022-11-15T02:50:37;3.13;;;1.10;;
69419;SDS011;56612;52.030;113.524;2022-11-15T02:53:58;3.83;;;1.23;;
69419;SDS011;56612;52.030;113.524;2022-11-15T02:57:26;5.70;;;1.60;;
69419;SDS011;56612;52.030;113.524;2022-11-15T03:12:30;3.38;;;1.10;;
69419;SDS011;56612;52.030;113.524;2022-11-15T03:19:40;4.15;;;1.05;;
69419;SDS011;56612;52.030;113.524;2022-11-15T03:23:08;5.00;;;1.10;;
69419;SDS011;56612;52.030;113.524;2022-11-15T03:26:36;4.38;;;1.10;;
69419;SDS011;56612;52.030;113.524;2022-11-15T03:30:03;5.97;;;1.50;;
69419;SDS011;56612;52.030;113.524;2022-11-15T03:33:26;3.95;;;1.50;;
69419;SDS011;56612;52.030;113.524;2022-11-15T03:36:50;4.07;;;1.13;;
69419;SDS011;56612;52.030;113.524;2022-11-15T03:40:13;4.60;;;0.90;;
69419;SDS011;56612;52.030;113.524;2022-11-15T03:43:42;1.83;;;0.55;;
69419;SDS011;56612;52.030;113.524;2022-11-15T03:47:09;3.42;;;1.00;;
69419;SDS011;56612;52.030;113.524;2022-11-15T03:50:59;4.72;;;1.00;;
69419;SDS011;56612;52.030;113.524;2022-11-15T03:54:21;5.32;;;1.30;;
69419;SDS011;56612;52.030;113.524;2022-11-15T03:57:43;5.17;;;1.20;;
69419;SDS011;56612;52.030;113.524;2022-11-15T04:01:05;5.30;;;1.60;;
69419;SDS011;56612;52.030;113.524;2022-11-15T04:04:28;4.18;;;1.40;;
69419;SDS011;56612;52.030;113.524;2022-11-15T04:07:50;5.80;;;1.48;;
69419;SDS011;56612;52.030;113.524;2022-11-15T04:11:11;4.65;;;1.30;;
69419;SDS011;56612;52.030;113.524;2022-11-15T04:14:33;4.80;;;1.50;;
69419;SDS011;56612;52.030;113.524;2022-11-15T04:17:56;4.35;;;1.13;;
69419;SDS011;56612;52.030;113.524;2022-11-15T04:21:18;3.45;;;1.08;;
69419;SDS011;56612;52.030;113.524;2022-11-15T04:24:58;8.38;;;1.00;;
69419;SDS011;56612;52.030;113.524;2022-11-15T04:28:21;7.03;;;2.20;;
69419;SDS011;56612;52.030;113.524;2022-11-15T04:31:43;4.70;;;1.63;;
69419;SDS011;56612;52.030;113.524;2022-11-15T04:35:04;5.13;;;1.35;;
69419;SDS011;56612;52.030;113.524;2022-11-15T04:38:27;6.10;;;1.42;;
69419;SDS011;56612;52.030;113.524;2022-11-15T04:41:48;46.08;;;13.25;;
69419;SDS011;56612;52.030;113.524;2022-11-15T04:45:10;7.18;;;1.73;;
69419;SDS011;56612;52.030;113.524;2022-11-15T04:48:33;13.87;;;3.23;;
69419;SDS011;56612;52.030;113.524;2022-11-15T04:51:54;7.40;;;2.45;;
69419;SDS011;56612;52.030;113.524;2022-11-15T04:55:17;6.60;;;2.10;;
69419;SDS011;56612;52.030;113.524;2022-11-15T04:58:40;5.88;;;2.13;;
69419;SDS011;56612;52.030;113.524;2022-11-15T05:02:01;6.97;;;2.13;;
69419;SDS011;56612;52.030;113.524;2022-11-15T05:05:23;11.83;;;4.27;;
69419;SDS011;56612;52.030;113.524;2022-11-15T05:08:44;12.18;;;4.15;;
69419;SDS011;56612;52.030;113.524;2022-11-15T05:12:06;12.30;;;3.63;;
69419;SDS011;56612;52.030;113.524;2022-11-15T05:15:28;13.48;;;3.35;;
69419;SDS011;56612;52.030;113.524;2022-11-15T05:18:53;9.35;;;2.58;;
69419;SDS011;56612;52.030;113.524;2022-11-15T05:22:18;7.10;;;1.37;;
69419;SDS011;56612;52.030;113.524;2022-11-15T05:25:41;3.97;;;1.20;;
69419;SDS011;56612;52.030;113.524;2022-11-15T05:29:03;8.20;;;1.88;;
69419;SDS011;56612;52.030;113.524;2022-11-15T05:32:24;5.07;;;1.80;;
69419;SDS011;56612;52.030;113.524;2022-11-15T05:35:54;6.13;;;1.67;;
69419;SDS011;56612;52.030;113.524;2022-11-15T05:39:36;8.37;;;2.07;;
69419;SDS011;56612;52.030;113.524;2022-11-15T05:42:57;8.25;;;2.53;;
69419;SDS011;56612;52.030;113.524;2022-11-15T05:46:20;7.30;;;1.92;;
69419;SDS011;56612;52.030;113.524;2022-11-15T05:49:43;5.72;;;1.60;;
69419;SDS011;56612;52.030;113.524;2022-11-15T05:53:07;7.30;;;1.88;;
69419;SDS011;56612;52.030;113.524;2022-11-15T05:56:29;4.60;;;1.77;;
69419;SDS011;56612;52.030;113.524;2022-11-15T05:59:51;6.35;;;2.28;;
69419;SDS011;56612;52.030;113.524;2022-11-15T06:03:14;8.68;;;2.35;;
69419;SDS011;56612;52.030;113.524;2022-11-15T06:06:36;4.30;;;1.73;;
69419;SDS011;56612;52.030;113.524;2022-11-15T06:09:59;9.50;;;1.90;;
69419;SDS011;56612;52.030;113.524;2022-11-15T06:13:21;15.17;;;9.57;;
69419;SDS011;56612;52.030;113.524;2022-11-15T06:16:43;10.13;;;4.05;;
69419;SDS011;56612;52.030;113.524;2022-11-15T06:20:06;8.32;;;2.20;;
69419;SDS011;56612;52.030;113.524;2022-11-15T06:23:30;10.18;;;2.25;;
69419;SDS011;56612;52.030;113.524;2022-11-15T06:26:54;13.48;;;3.50;;
69419;SDS011;56612;52.030;113.524;2022-11-15T06:30:16;16.07;;;4.03;;
69419;SDS011;56612;52.030;113.524;2022-11-15T06:33:39;13.50;;;4.03;;
69419;SDS011;56612;52.030;113.524;2022-11-15T06:37:00;16.13;;;4.50;;
69419;SDS011;56612;52.030;113.524;2022-11-15T06:40:21;17.52;;;4.95;;
69419;SDS011;56612;52.030;113.524;2022-11-15T06:43:44;15.23;;;5.32;;
69419;SDS011;56612;52.030;113.524;2022-11-15T06:47:05;14.07;;;3.70;;
69419;SDS011;56612;52.030;113.524;2022-11-15T06:50:27;17.70;;;4.65;;
69419;SDS011;56612;52.030;113.524;2022-11-15T06:53:49;11.60;;;4.50;;
69419;SDS011;56612;52.030;113.524;2022-11-15T06:57:10;13.93;;;4.15;;
69419;SDS011;56612;52.030;113.524;2022-11-15T07:00:32;9.98;;;3.75;;
69419;SDS011;56612;52.030;113.524;2022-11-15T07:03:53;11.33;;;3.77;;
69419;SDS011;56612;52.030;113.524;2022-11-15T07:07:15;9.63;;;4.50;;
69419;SDS011;56612;52.030;113.524;2022-11-15T07:10:37;13.73;;;4.35;;
69419;SDS011;56612;52.030;113.524;2022-11-15T07:13:59;9.65;;;3.88;;
69419;SDS011;56612;52.030;113.524;2022-11-15T07:17:21;9.23;;;4.65;;
69419;SDS011;56612;52.030;113.524;2022-11-15T07:20:43;9.27;;;4.13;;
69419;SDS011;56612;52.030;113.524;2022-11-15T07:24:04;14.95;;;4.22;;
69419;SDS011;56612;52.030;113.524;2022-11-15T07:27:26;14.38;;;4.47;;
69419;SDS011;56612;52.030;113.524;2022-11-15T07:30:48;11.88;;;3.90;;
69419;SDS011;56612;52.030;113.524;2022-11-15T07:34:09;10.93;;;4.40;;
69419;SDS011;56612;52.030;113.524;2022-11-15T07:37:30;9.83;;;4.40;;
69419;SDS011;56612;52.030;113.524;2022-11-15T07:40:56;16.13;;;6.10;;
69419;SDS011;56612;52.030;113.524;2022-11-15T07:44:19;25.40;;;9.00;;
69419;SDS011;56612;52.030;113.524;2022-11-15T07:47:44;20.42;;;7.05;;
69419;SDS011;56612;52.030;113.524;2022-11-15T07:51:10;14.27;;;5.20;;
69419;SDS011;56612;52.030;113.524;2022-11-15T07:54:38;11.93;;;4.97;;
69419;SDS011;56612;52.030;113.524;2022-11-15T07:58:04;13.85;;;5.35;;
69419;SDS011;56612;52.030;113.524;2022-11-15T08:01:28;10.68;;;5.05;;
69419;SDS011;56612;52.030;113.524;2022-11-15T08:04:50;17.20;;;6.13;;
69419;SDS011;56612;52.030;113.524;2022-11-15T08:08:13;15.63;;;6.05;;
69419;SDS011;56612;52.030;113.524;2022-11-15T08:11:35;14.10;;;6.17;;
69419;SDS011;56612;52.030;113.524;2022-11-15T08:14:57;16.30;;;7.18;;
69419;SDS011;56612;52.030;113.524;2022-11-15T08:18:18;16.13;;;7.20;;
69419;SDS011;56612;52.030;113.524;2022-11-15T08:21:39;19.63;;;7.57;;
69419;SDS011;56612;52.030;113.524;2022-11-15T08:25:01;12.40;;;5.70;;
69419;SDS011;56612;52.030;113.524;2022-11-15T08:28:23;19.80;;;6.83;;
69419;SDS011;56612;52.030;113.524;2022-11-15T08:31:46;17.83;;;7.18;;
69419;SDS011;56612;52.030;113.524;2022-11-15T08:35:08;20.92;;;8.68;;
69419;SDS011;56612;52.030;113.524;2022-11-15T08:38:30;20.58;;;8.63;;
69419;SDS011;56612;52.030;113.524;2022-11-15T08:41:53;28.33;;;10.02;;
69419;SDS011;56612;52.030;113.524;2022-11-15T08:45:15;32.07;;;10.37;;
69419;SDS011;56612;52.030;113.524;2022-11-15T08:48:37;26.25;;;9.65;;
69419;SDS011;56612;52.030;113.524;2022-11-15T08:51:59;29.95;;;10.95;;
69419;SDS011;56612;52.030;113.524;2022-11-15T08:55:20;24.48;;;9.32;;
69419;SDS011;56612;52.030;113.524;2022-11-15T08:58:44;20.13;;;7.35;;
69419;SDS011;56612;52.030;113.524;2022-11-15T09:02:10;20.37;;;8.40;;
69419;SDS011;56612;52.030;113.524;2022-11-15T09:05:37;18.60;;;5.90;;
69419;SDS011;56612;52.030;113.524;2022-11-15T09:08:59;18.70;;;7.18;;
69419;SDS011;56612;52.030;113.524;2022-11-15T09:12:21;39.63;;;10.25;;
69419;SDS011;56612;52.030;113.524;2022-11-15T09:15:43;37.40;;;11.73;;
69419;SDS011;56612;52.030;113.524;2022-11-15T09:19:04;23.63;;;8.57;;
69419;SDS011;56612;52.030;113.524;2022-11-15T09:22:31;21.25;;;8.10;;
69419;SDS011;56612;52.030;113.524;2022-11-15T09:25:57;19.05;;;7.68;;
69419;SDS011;56612;52.030;113.524;2022-11-15T09:29:19;12.68;;;5.80;;
69419;SDS011;56612;52.030;113.524;2022-11-15T09:32:41;13.85;;;5.10;;
69419;SDS011;56612;52.030;113.524;2022-11-15T09:36:04;15.27;;;5.73;;
69419;SDS011;56612;52.030;113.524;2022-11-15T09:39:27;14.10;;;6.55;;
69419;SDS011;56612;52.030;113.524;2022-11-15T09:50:38;33.67;;;11.85;;
69419;SDS011;56612;52.030;113.524;2022-11-15T09:54:29;27.17;;;9.43;;
69419;SDS011;56612;52.030;113.524;2022-11-15T10:01:08;35.60;;;10.80;;
69419;SDS011;56612;52.030;113.524;2022-11-15T10:04:38;25.83;;;10.80;;
69419;SDS011;56612;52.030;113.524;2022-11-15T10:11:02;28.20;;;11.33;;
69419;SDS011;56612;52.030;113.524;2022-11-15T10:14:28;30.75;;;12.88;;
69419;SDS011;56612;52.030;113.524;2022-11-15T10:17:58;32.33;;;13.98;;
69419;SDS011;56612;52.030;113.524;2022-11-15T10:20:59;30.08;;;12.68;;
69419;SDS011;56612;52.030;113.524;2022-11-15T10:24:19;37.97;;;13.75;;
69419;SDS011;56612;52.030;113.524;2022-11-15T10:27:28;41.17;;;19.90;;
69419;SDS011;56612;52.030;113.524;2022-11-15T10:30:34;36.60;;;16.20;;
69419;SDS011;56612;52.030;113.524;2022-11-15T10:33:42;51.50;;;20.42;;
69419;SDS011;56612;52.030;113.524;2022-11-15T10:36:46;63.30;;;24.83;;
69419;SDS011;56612;52.030;113.524;2022-11-15T10:40:05;71.97;;;26.92;;
69419;SDS011;56612;52.030;113.524;2022-11-15T10:43:18;68.10;;;24.03;;
69419;SDS011;56612;52.030;113.524;2022-11-15T10:46:23;68.45;;;23.08;;
69419;SDS011;56612;52.030;113.524;2022-11-15T10:49:58;54.67;;;21.27;;
69419;SDS011;56612;52.030;113.524;2022-11-15T10:56:25;50.08;;;21.45;;
69419;SDS011;56612;52.030;113.524;2022-11-15T10:59:31;45.13;;;17.43;;
69419;SDS011;56612;52.030;113.524;2022-11-15T11:02:44;43.42;;;15.20;;
69419;SDS011;56612;52.030;113.524;2022-11-15T11:06:04;43.45;;;15.02;;
69419;SDS011;56612;52.030;113.524;2022-11-15T11:09:19;36.25;;;11.73;;
69419;SDS011;56612;52.030;113.524;2022-11-15T11:12:35;26.75;;;10.38;;
69419;SDS011;56612;52.030;113.524;2022-11-15T11:15:39;25.80;;;10.30;;
69419;SDS011;56612;52.030;113.524;2022-11-15T11:21:57;28.00;;;10.02;;
69419;SDS011;56612;52.030;113.524;2022-11-15T11:35:29;30.35;;;11.88;;
69419;SDS011;56612;52.030;113.524;2022-11-15T11:45:40;28.50;;;11.05;;
69419;SDS011;56612;52.030;113.524;2022-11-15T11:49:03;30.50;;;10.37;;
69419;SDS011;56612;52.030;113.524;2022-11-15T11:52:17;19.27;;;8.55;;
69419;SDS011;56612;52.030;113.524;2022-11-15T11:58:36;23.95;;;8.75;;
69419;SDS011;56612;52.030;113.524;2022-11-15T12:01:43;26.58;;;9.00;;
69419;SDS011;56612;52.030;113.524;2022-11-15T12:04:49;19.77;;;8.10;;
69419;SDS011;56612;52.030;113.524;2022-11-15T12:08:01;25.58;;;9.52;;
69419;SDS011;56612;52.030;113.524;2022-11-15T12:17:40;28.30;;;9.20;;
69419;SDS011;56612;52.030;113.524;2022-11-15T12:21:05;25.87;;;9.77;;
69419;SDS011;56612;52.030;113.524;2022-11-15T12:27:46;33.10;;;13.05;;
69419;SDS011;56612;52.030;113.524;2022-11-15T12:30:54;38.95;;;12.90;;
69419;SDS011;56612;52.030;113.524;2022-11-15T12:34:13;31.63;;;12.40;;
69419;SDS011;56612;52.030;113.524;2022-11-15T12:37:33;32.63;;;11.07;;
69419;SDS011;56612;52.030;113.524;2022-11-15T12:47:34;22.30;;;9.10;;
69419;SDS011;56612;52.030;113.524;2022-11-15T12:53:57;28.13;;;8.67;;
69419;SDS011;56612;52.030;113.524;2022-11-15T13:03:18;27.35;;;9.95;;
69419;SDS011;56612;52.030;113.524;2022-11-15T13:06:47;31.88;;;12.95;;
69419;SDS011;56612;52.030;113.524;2022-11-15T13:09:53;35.33;;;12.50;;
69419;SDS011;56612;52.030;113.524;2022-11-15T13:16:05;34.50;;;14.93;;
69419;SDS011;56612;52.030;113.524;2022-11-15T13:19:10;29.48;;;12.70;;
69419;SDS011;56612;52.030;113.524;2022-11-15T13:22:14;38.75;;;15.07;;
69419;SDS011;56612;52.030;113.524;2022-11-15T13:28:49;38.20;;;15.23;;
69419;SDS011;56612;52.030;113.524;2022-11-15T13:31:57;37.83;;;14.32;;
69419;SDS011;56612;52.030;113.524;2022-11-15T13:35:01;42.15;;;16.00;;
69419;SDS011;56612;52.030;113.524;2022-11-15T13:41:33;32.93;;;14.13;;
69419;SDS011;56612;52.030;113.524;2022-11-15T13:44:39;29.45;;;11.98;;
69419;SDS011;56612;52.030;113.524;2022-11-15T13:47:43;32.65;;;13.73;;
69419;SDS011;56612;52.030;113.524;2022-11-15T13:50:46;28.58;;;11.95;;
69419;SDS011;56612;52.030;113.524;2022-11-15T13:53:55;28.83;;;11.98;;
69419;SDS011;56612;52.030;113.524;2022-11-15T13:57:07;34.87;;;13.23;;
69419;SDS011;56612;52.030;113.524;2022-11-15T14:03:47;30.67;;;13.00;;
69419;SDS011;56612;52.030;113.524;2022-11-15T14:07:00;38.47;;;17.08;;
69419;SDS011;56612;52.030;113.524;2022-11-15T14:10:24;39.08;;;15.90;;
69419;SDS011;56612;52.030;113.524;2022-11-15T14:13:31;54.70;;;20.53;;
69419;SDS011;56612;52.030;113.524;2022-11-15T14:16:36;87.65;;;30.90;;
69419;SDS011;56612;52.030;113.524;2022-11-15T14:19:48;121.60;;;40.22;;
69419;SDS011;56612;52.030;113.524;2022-11-15T14:22:53;63.15;;;21.88;;
69419;SDS011;56612;52.030;113.524;2022-11-15T14:25:59;46.47;;;17.77;;
69419;SDS011;56612;52.030;113.524;2022-11-15T14:29:24;31.87;;;13.07;;
69419;SDS011;56612;52.030;113.524;2022-11-15T14:32:30;31.55;;;12.43;;
69419;SDS011;56612;52.030;113.524;2022-11-15T14:35:50;32.05;;;13.57;;
69419;SDS011;56612;52.030;113.524;2022-11-15T14:38:55;49.83;;;14.77;;
69419;SDS011;56612;52.030;113.524;2022-11-15T14:42:00;71.38;;;22.15;;
69419;SDS011;56612;52.030;113.524;2022-11-15T14:45:10;122.10;;;33.67;;
69419;SDS011;56612;52.030;113.524;2022-11-15T14:48:19;135.43;;;36.72;;
69419;SDS011;56612;52.030;113.524;2022-11-15T14:51:23;161.73;;;43.45;;
69419;SDS011;56612;52.030;113.524;2022-11-15T14:54:27;119.35;;;35.50;;
69419;SDS011;56612;52.030;113.524;2022-11-15T14:57:31;115.53;;;34.25;;
69419;SDS011;56612;52.030;113.524;2022-11-15T15:00:35;85.00;;;26.23;;
69419;SDS011;56612;52.030;113.524;2022-11-15T15:03:40;138.35;;;38.15;;
69419;SDS011;56612;52.030;113.524;2022-11-15T15:06:43;190.90;;;49.47;;
69419;SDS011;56612;52.030;113.524;2022-11-15T15:09:47;230.48;;;55.80;;
69419;SDS011;56612;52.030;113.524;2022-11-15T15:12:50;213.75;;;54.22;;
69419;SDS011;56612;52.030;113.524;2022-11-15T15:15:54;178.87;;;45.90;;
69419;SDS011;56612;52.030;113.524;2022-11-15T15:18:57;109.38;;;33.40;;
69419;SDS011;56612;52.030;113.524;2022-11-15T15:22:00;81.38;;;26.80;;
69419;SDS011;56612;52.030;113.524;2022-11-15T15:25:09;89.93;;;25.80;;
69419;SDS011;56612;52.030;113.524;2022-11-15T15:28:23;74.93;;;23.55;;
69419;SDS011;56612;52.030;113.524;2022-11-15T15:31:34;51.00;;;18.47;;
69419;SDS011;56612;52.030;113.524;2022-11-15T15:34:37;47.65;;;18.75;;
69419;SDS011;56612;52.030;113.524;2022-11-15T15:37:41;75.07;;;27.42;;
69419;SDS011;56612;52.030;113.524;2022-11-15T15:40:48;78.35;;;27.77;;
69419;SDS011;56612;52.030;113.524;2022-11-15T15:43:52;94.15;;;31.75;;
69419;SDS011;56612;52.030;113.524;2022-11-15T15:46:56;102.80;;;32.27;;
69419;SDS011;56612;52.030;113.524;2022-11-15T15:50:00;119.43;;;38.03;;
69419;SDS011;56612;52.030;113.524;2022-11-15T15:53:04;110.78;;;38.08;;
69419;SDS011;56612;52.030;113.524;2022-11-15T15:56:07;92.15;;;31.88;;
69419;SDS011;56612;52.030;113.524;2022-11-15T15:59:12;108.35;;;34.40;;
69419;SDS011;56612;52.030;113.524;2022-11-15T16:02:15;82.53;;;30.13;;
69419;SDS011;56612;52.030;113.524;2022-11-15T16:05:18;82.40;;;29.45;;
69419;SDS011;56612;52.030;113.524;2022-11-15T16:08:22;143.02;;;39.70;;
69419;SDS011;56612;52.030;113.524;2022-11-15T16:11:26;105.07;;;33.67;;
69419;SDS011;56612;52.030;113.524;2022-11-15T16:14:29;116.78;;;35.60;;
69419;SDS011;56612;52.030;113.524;2022-11-15T16:17:33;105.53;;;35.63;;
69419;SDS011;56612;52.030;113.524;2022-11-15T16:20:40;116.65;;;36.17;;
69419;SDS011;56612;52.030;113.524;2022-11-15T16:23:46;111.82;;;33.65;;
69419;SDS011;56612;52.030;113.524;2022-11-15T16:26:50;119.28;;;34.25;;
69419;SDS011;56612;52.030;113.524;2022-11-15T16:29:54;103.75;;;33.85;;
69419;SDS011;56612;52.030;113.524;2022-11-15T16:32:57;93.07;;;30.80;;
69419;SDS011;56612;52.030;113.524;2022-11-15T16:36:01;83.82;;;26.05;;
69419;SDS011;56612;52.030;113.524;2022-11-15T16:39:06;63.03;;;21.17;;
69419;SDS011;56612;52.030;113.524;2022-11-15T16:42:12;68.43;;;23.92;;
69419;SDS011;56612;52.030;113.524;2022-11-15T16:45:16;85.15;;;26.77;;
69419;SDS011;56612;52.030;113.524;2022-11-15T16:48:24;207.00;;;74.20;;
69419;SDS011;56612;52.030;113.524;2022-11-15T16:51:28;115.10;;;39.17;;
69419;SDS011;56612;52.030;113.524;2022-11-15T16:54:31;137.75;;;43.53;;
69419;SDS011;56612;52.030;113.524;2022-11-15T16:57:35;115.28;;;34.05;;
69419;SDS011;56612;52.030;113.524;2022-11-15T17:00:38;93.30;;;30.42;;
69419;SDS011;56612;52.030;113.524;2022-11-15T17:03:42;78.33;;;27.37;;
69419;SDS011;56612;52.030;113.524;2022-11-15T17:06:46;97.75;;;32.83;;
69419;SDS011;56612;52.030;113.524;2022-11-15T17:09:50;109.32;;;33.80;;
69419;SDS011;56612;52.030;113.524;2022-11-15T17:12:54;113.82;;;35.20;;
69419;SDS011;56612;52.030;113.524;2022-11-15T17:16:02;126.57;;;38.28;;
69419;SDS011;56612;52.030;113.524;2022-11-15T17:19:17;155.63;;;45.60;;
69419;SDS011;56612;52.030;113.524;2022-11-15T17:22:22;159.75;;;41.55;;
69419;SDS011;56612;52.030;113.524;2022-11-15T17:25:26;168.32;;;43.13;;
69419;SDS011;56612;52.030;113.524;2022-11-15T17:28:29;129.25;;;32.65;;
69419;SDS011;56612;52.030;113.524;2022-11-15T17:31:37;130.45;;;38.00;;
69419;SDS011;56612;52.030;113.524;2022-11-15T17:34:40;145.67;;;41.00;;
69419;SDS011;56612;52.030;113.524;2022-11-15T17:37:43;148.20;;;39.58;;
69419;SDS011;56612;52.030;113.524;2022-11-15T17:40:46;155.43;;;39.85;;
69419;SDS011;56612;52.030;113.524;2022-11-15T17:43:49;166.07;;;42.55;;
69419;SDS011;56612;52.030;113.524;2022-11-15T17:46:52;206.60;;;52.28;;
69419;SDS011;56612;52.030;113.524;2022-11-15T17:49:56;230.17;;;56.03;;
69419;SDS011;56612;52.030;113.524;2022-11-15T17:52:59;265.30;;;62.67;;
69419;SDS011;56612;52.030;113.524;2022-11-15T17:56:06;251.45;;;60.75;;
69419;SDS011;56612;52.030;113.524;2022-11-15T17:59:12;178.25;;;46.22;;
69419;SDS011;56612;52.030;113.524;2022-11-15T18:02:22;132.65;;;37.63;;
69419;SDS011;56612;52.030;113.524;2022-11-15T18:05:26;97.53;;;28.67;;
69419;SDS011;56612;52.030;113.524;2022-11-15T18:08:30;188.68;;;49.28;;
69419;SDS011;56612;52.030;113.524;2022-11-15T18:11:39;189.43;;;48.63;;
69419;SDS011;56612;52.030;113.524;2022-11-15T18:14:43;211.25;;;53.50;;
69419;SDS011;56612;52.030;113.524;2022-11-15T18:17:46;244.52;;;56.72;;
69419;SDS011;56612;52.030;113.524;2022-11-15T18:20:57;269.90;;;64.90;;
69419;SDS011;56612;52.030;113.524;2022-11-15T18:24:12;188.48;;;48.92;;
69419;SDS011;56612;52.030;113.524;2022-11-15T18:27:16;180.32;;;44.80;;
69419;SDS011;56612;52.030;113.524;2022-11-15T18:30:20;139.40;;;37.50;;
69419;SDS011;56612;52.030;113.524;2022-11-15T18:33:24;124.80;;;37.03;;
69419;SDS011;56612;52.030;113.524;2022-11-15T18:36:29;135.83;;;35.97;;
69419;SDS011;56612;52.030;113.524;2022-11-15T18:39:32;115.72;;;32.90;;
69419;SDS011;56612;52.030;113.524;2022-11-15T18:42:35;113.75;;;31.02;;
69419;SDS011;56612;52.030;113.524;2022-11-15T18:45:38;109.28;;;33.05;;
69419;SDS011;56612;52.030;113.524;2022-11-15T18:48:42;124.35;;;34.78;;
69419;SDS011;56612;52.030;113.524;2022-11-15T18:51:46;139.40;;;36.53;;
69419;SDS011;56612;52.030;113.524;2022-11-15T18:54:50;111.55;;;32.50;;
69419;SDS011;56612;52.030;113.524;2022-11-15T18:57:53;117.25;;;35.60;;
69419;SDS011;56612;52.030;113.524;2022-11-15T19:01:01;126.82;;;39.13;;
69419;SDS011;56612;52.030;113.524;2022-11-15T19:04:15;102.93;;;31.75;;
69419;SDS011;56612;52.030;113.524;2022-11-15T19:07:19;104.57;;;33.30;;
69419;SDS011;56612;52.030;113.524;2022-11-15T19:10:22;128.50;;;37.65;;
69419;SDS011;56612;52.030;113.524;2022-11-15T19:13:26;99.97;;;32.33;;
69419;SDS011;56612;52.030;113.524;2022-11-15T19:16:31;91.85;;;27.45;;
69419;SDS011;56612;52.030;113.524;2022-11-15T19:19:35;82.65;;;26.05;;
69419;SDS011;56612;52.030;113.524;2022-11-15T19:22:39;68.53;;;22.83;;
69419;SDS011;56612;52.030;113.524;2022-11-15T19:25:43;78.20;;;22.08;;
69419;SDS011;56612;52.030;113.524;2022-11-15T19:28:59;90.38;;;27.48;;
69419;SDS011;56612;52.030;113.524;2022-11-15T19:32:04;119.30;;;33.10;;
69419;SDS011;56612;52.030;113.524;2022-11-15T19:35:07;126.03;;;32.22;;
69419;SDS011;56612;52.030;113.524;2022-11-15T19:38:11;163.10;;;35.37;;
69419;SDS011;56612;52.030;113.524;2022-11-15T19:41:17;149.63;;;33.13;;
69419;SDS011;56612;52.030;113.524;2022-11-15T19:44:21;137.38;;;34.60;;
69419;SDS011;56612;52.030;113.524;2022-11-15T19:47:27;141.40;;;34.65;;
69419;SDS011;56612;52.030;113.524;2022-11-15T19:50:32;91.45;;;21.88;;
69419;SDS011;56612;52.030;113.524;2022-11-15T19:53:35;63.83;;;18.17;;
69419;SDS011;56612;52.030;113.524;2022-11-15T19:56:40;48.75;;;15.00;;
69419;SDS011;56612;52.030;113.524;2022-11-15T19:59:43;41.95;;;14.30;;
69419;SDS011;56612;52.030;113.524;2022-11-15T20:02:46;46.80;;;12.43;;
69419;SDS011;56612;52.030;113.524;2022-11-15T20:05:49;25.65;;;10.05;;
69419;SDS011;56612;52.030;113.524;2022-11-15T20:08:52;29.80;;;10.17;;
69419;SDS011;56612;52.030;113.524;2022-11-15T20:11:56;31.02;;;10.35;;
69419;SDS011;56612;52.030;113.524;2022-11-15T20:15:01;29.00;;;10.55;;
69419;SDS011;56612;52.030;113.524;2022-11-15T20:18:05;28.05;;;10.18;;
69419;SDS011;56612;52.030;113.524;2022-11-15T20:21:08;33.05;;;10.23;;
69419;SDS011;56612;52.030;113.524;2022-11-15T20:24:11;34.00;;;10.40;;
69419;SDS011;56612;52.030;113.524;2022-11-15T20:27:15;74.40;;;22.15;;
69419;SDS011;56612;52.030;113.524;2022-11-15T20:30:19;90.03;;;25.85;;